Time;durP1;ratioP1;P1;durP2;ratioP2;P2;SDS_P1;SDS_P2;PMS_P1;PMS_P2;Temp;Humidity;BMP_temperature;BMP_pressure;BME280_temperature;BME280_humidity;BME280_pressure;Samples;Min_cycle;Max_cycle;Signal;HPM_P1;HPM_P2
2022/01/24 00:00:00;;;;;;;50.90;34.30;;;;;;;5.65;83.72;103310.81;5054099;28;20052;-68
2022/01/24 00:02:28;;;;;;;52.63;35.42;;;;;;;5.60;82.95;103318.41;5051593;28;20086;-69
2022/01/24 00:04:54;;;;;;;51.20;33.25;;;;;;;5.60;82.74;103313.91;5053725;28;20029;-69
2022/01/24 00:07:22;;;;;;;48.70;33.15;;;;;;;5.62;81.83;103319.13;5053873;28;20039;-69
2022/01/24 00:09:48;;;;;;;45.33;31.10;;;;;;;5.60;81.30;103308.53;5052339;28;20028;-69
2022/01/24 00:15:52;;;;;;;49.08;34.30;;;;;;;5.64;82.32;103311.78;5053526;28;20068;-69
2022/01/24 00:17:39;;;;;;;50.00;32.72;;;;;;;5.58;81.64;103312.31;5044300;28;20526;-69
2022/01/24 00:28:04;;;;;;;39.05;27.33;;;;;;;5.57;79.11;103307.91;5053134;28;20079;-69
2022/01/24 00:30:29;;;;;;;34.10;24.00;;;;;;;5.54;77.81;103314.44;5053711;28;20108;-68
2022/01/24 00:32:54;;;;;;;33.28;23.52;;;;;;;5.52;77.75;103310.16;5053178;28;20053;-69
2022/01/24 00:35:20;;;;;;;31.15;22.60;;;;;;;5.53;78.12;103301.97;5053396;28;20082;-69
2022/01/24 00:37:45;;;;;;;35.08;23.95;;;;;;;5.50;77.01;103300.38;5053106;28;20065;-69
2022/01/24 00:40:11;;;;;;;35.53;24.40;;;;;;;5.49;77.06;103298.69;5052113;28;20417;-69
2022/01/24 00:45:18;;;;;;;36.63;26.75;;;;;;;5.48;78.28;103291.63;5053163;28;20116;-69
2022/01/24 00:53:11;;;;;;;37.75;26.58;;;;;;;5.47;77.83;103297.97;5053414;28;20032;-69
2022/01/24 00:53:13;;;;;;;38.70;27.13;;;;;;;5.48;77.86;103299.69;5052567;28;20110;-69
2022/01/24 00:55:39;;;;;;;37.53;27.02;;;;;;;5.49;76.92;103303.22;5053135;28;20027;-69
2022/01/24 00:58:05;;;;;;;38.53;26.90;;;;;;;5.48;77.67;103299.69;5051726;28;20024;-69
2022/01/24 01:00:30;;;;;;;38.97;26.95;;;;;;;5.47;78.79;103302.50;5051161;28;20029;-69
2022/01/24 01:02:55;;;;;;;39.85;27.52;;;;;;;5.53;79.04;103307.34;5052069;28;20468;-69
2022/01/24 01:07:57;;;;;;;35.30;24.48;;;;;;;5.46;77.00;103298.09;5052605;28;20037;-69
2022/01/24 01:18:11;;;;;;;38.13;26.77;;;;;;;5.50;77.25;103294.19;5052584;28;20090;-68
2022/01/24 01:18:43;;;;;;;36.25;25.75;;;;;;;5.45;77.87;103291.00;5052781;28;20139;-69
2022/01/24 01:21:14;;;;;;;37.58;26.40;;;;;;;5.46;77.43;103293.56;5052680;28;20047;-69
2022/01/24 01:23:48;;;;;;;36.25;26.17;;;;;;;5.43;77.53;103291.16;5052642;28;20021;-68
2022/01/24 01:28:45;;;;;;;37.60;26.33;;;;;;;5.46;78.25;103290.88;5052338;28;20069;-69
2022/01/24 01:31:20;;;;;;;37.33;26.15;;;;;;;5.46;77.64;103284.66;5052559;28;20104;-68
2022/01/24 01:33:58;;;;;;;31.88;24.15;;;;;;;5.41;76.18;103279.69;5051920;28;20486;-69
2022/01/24 01:40:03;;;;;;;34.92;25.38;;;;;;;5.44;77.98;103287.50;5009358;28;20101;-69
2022/01/24 01:53:48;;;;;;;34.05;25.20;;;;;;;5.40;77.80;103288.72;5052194;28;20391;-69
2022/01/24 01:56:08;;;;;;;35.80;24.85;;;;;;;5.38;77.39;103293.38;5051763;28;20049;-69
2022/01/24 01:58:34;;;;;;;33.25;24.63;;;;;;;5.35;77.42;103288.28;5052009;28;20036;-69
2022/01/24 02:01:00;;;;;;;33.95;23.92;;;;;;;5.35;77.17;103282.91;5049252;28;20028;-69
2022/01/24 02:03:27;;;;;;;37.30;24.48;;;;;;;5.38;77.43;103288.00;5051836;28;20099;-68
2022/01/24 02:05:53;;;;;;;33.08;23.08;;;;;;;5.38;76.77;103290.69;5051791;28;20037;-69
2022/01/24 02:08:23;;;;;;;32.90;22.85;;;;;;;5.36;77.03;103290.00;5052149;28;20060;-69
2022/01/24 02:10:48;;;;;;;33.40;23.17;;;;;;;5.37;76.73;103289.00;5051948;28;20064;-69
2022/01/24 02:13:14;;;;;;;33.08;23.85;;;;;;;5.40;77.19;103287.88;5052106;28;20057;-69
2022/01/24 02:18:14;;;;;;;33.55;23.67;;;;;;;5.37;77.79;103272.03;5051852;28;20387;-69
2022/01/24 02:25:52;;;;;;;33.33;23.65;;;;;;;5.33;77.42;103268.78;5051783;28;20037;-69
2022/01/24 02:28:20;;;;;;;31.73;23.42;;;;;;;5.34;78.20;103267.78;5051963;28;20044;-69
2022/01/24 02:33:32;;;;;;;34.35;23.63;;;;;;;5.34;77.99;103273.13;5051721;28;20044;-69
2022/01/24 02:35:57;;;;;;;34.88;24.35;;;;;;;5.32;78.25;103272.44;5051706;28;20033;-69
2022/01/24 02:49:11;;;;;;;33.88;22.75;;;;;;;5.30;76.70;103263.66;5052079;28;20388;-69
2022/01/24 02:51:46;;;;;;;33.40;23.23;;;;;;;5.27;77.12;103258.56;5053795;28;20037;-69
2022/01/24 02:54:23;;;;;;;32.72;23.83;;;;;;;5.33;77.42;103263.41;5055598;28;20052;-69
2022/01/24 02:56:49;;;;;;;32.70;23.30;;;;;;;5.30;77.46;103260.97;5055097;28;20373;-68
2022/01/24 02:59:14;;;;;;;34.05;24.70;;;;;;;5.25;77.20;103255.97;5055223;28;20055;-69
2022/01/24 03:01:41;;;;;;;33.05;23.65;;;;;;;5.26;77.35;103256.84;5052374;28;20041;-69
2022/01/24 03:04:07;;;;;;;32.72;23.38;;;;;;;5.25;76.33;103255.13;5054960;28;20082;-69
2022/01/24 03:06:32;;;;;;;34.83;24.50;;;;;;;5.26;77.20;103256.84;5055119;28;20116;-69
2022/01/24 03:08:57;;;;;;;36.70;24.73;;;;;;;5.25;76.52;103247.91;5054871;28;20040;-69
2022/01/24 03:11:27;;;;;;;33.67;23.92;;;;;;;5.25;76.44;103247.06;5054702;28;20469;-69
2022/01/24 03:13:52;;;;;;;31.25;22.95;;;;;;;5.19;74.84;103250.28;5054710;28;20178;-69
2022/01/24 03:16:18;;;;;;;30.92;22.48;;;;;;;5.21;75.40;103253.69;5054906;28;20461;-69
2022/01/24 03:18:43;;;;;;;29.92;22.75;;;;;;;5.19;75.64;103250.28;5054865;28;20021;-80
2022/01/24 03:21:08;;;;;;;29.50;23.08;;;;;;;5.19;75.89;103250.28;5053290;28;20029;-81
2022/01/24 03:23:33;;;;;;;31.60;23.73;;;;;;;5.17;75.91;103242.38;5054767;28;20457;-68
2022/01/24 03:25:59;;;;;;;30.88;23.17;;;;;;;5.15;75.98;103238.97;5054490;28;20021;-68
2022/01/24 03:28:24;;;;;;;34.90;24.88;;;;;;;5.19;76.38;103243.06;5054738;28;20028;-68
2022/01/24 03:30:50;;;;;;;33.47;24.13;;;;;;;5.15;74.99;103241.66;5054396;28;20102;-69
2022/01/24 03:33:15;;;;;;;32.95;23.60;;;;;;;5.13;75.41;103231.06;5054578;28;20060;-71
2022/01/24 03:35:41;;;;;;;33.70;24.95;;;;;;;5.12;76.53;103234.69;5054616;28;20036;-70
2022/01/24 03:38:06;;;;;;;35.45;24.55;;;;;;;5.20;76.01;103241.25;5054496;28;20037;-70
2022/01/24 03:40:32;;;;;;;34.97;25.20;;;;;;;5.17;76.27;103239.69;5053341;28;20040;-69
2022/01/24 03:42:57;;;;;;;33.10;24.02;;;;;;;5.18;75.88;103232.47;5053940;28;20033;-69
2022/01/24 03:45:36;;;;;;;35.70;24.90;;;;;;;5.18;76.61;103237.84;5054135;28;20029;-69
2022/01/24 03:48:23;;;;;;;35.47;25.27;;;;;;;5.19;76.87;103240.38;5054069;28;20383;-69
2022/01/24 03:50:49;;;;;;;35.70;25.10;;;;;;;5.19;75.41;103242.22;5054352;28;20039;-69
2022/01/24 03:53:15;;;;;;;34.63;25.60;;;;;;;5.20;75.32;103247.47;5053785;28;20048;-69
2022/01/24 03:55:40;;;;;;;36.58;25.52;;;;;;;5.18;74.98;103248.56;5054480;28;20049;-69
2022/01/24 03:58:05;;;;;;;33.58;25.00;;;;;;;5.18;75.51;103237.84;5053666;28;20098;-69
2022/01/24 04:00:30;;;;;;;34.08;24.98;;;;;;;5.12;74.97;103237.38;5052096;28;20530;-69
2022/01/24 04:02:57;;;;;;;34.30;25.40;;;;;;;5.13;75.20;103241.78;5052683;28;20041;-69
2022/01/24 04:05:22;;;;;;;36.53;26.55;;;;;;;5.14;76.02;103237.25;5053961;28;20534;-69
2022/01/24 04:07:47;;;;;;;35.17;25.27;;;;;;;5.17;76.43;103239.69;5053989;28;20079;-69
2022/01/24 04:10:17;;;;;;;35.38;26.15;;;;;;;5.12;76.97;103239.22;5052011;28;20120;-69
2022/01/24 04:12:42;;;;;;;37.20;25.60;;;;;;;5.15;76.09;103237.13;5053812;28;20032;-69
2022/01/24 04:15:13;;;;;;;36.60;26.20;;;;;;;5.12;76.52;103237.38;5054120;28;20409;-69
2022/01/24 04:17:43;;;;;;;35.20;25.92;;;;;;;5.15;77.22;103238.97;5053828;28;20029;-69
2022/01/24 04:22:55;;;;;;;36.55;25.58;;;;;;;5.15;76.35;103239.81;5053442;28;20048;-69
2022/01/24 04:25:24;;;;;;;36.80;25.23;;;;;;;5.11;75.94;103232.16;5053575;28;20061;-69
2022/01/24 04:27:58;;;;;;;33.75;24.48;;;;;;;5.09;75.87;103223.38;5053603;28;20028;-69
2022/01/24 04:30:23;;;;;;;36.03;26.27;;;;;;;5.07;76.06;103226.19;5053576;28;20464;-69
2022/01/24 04:32:49;;;;;;;35.97;25.80;;;;;;;5.09;77.04;103229.59;5053504;28;20071;-69
2022/01/24 04:35:14;;;;;;;31.45;24.73;;;;;;;5.09;76.58;103237.66;5053270;28;20110;-69
2022/01/24 04:37:40;;;;;;;33.67;24.15;;;;;;;5.06;75.31;103242.44;5053394;28;20078;-69
2022/01/24 04:40:07;;;;;;;33.53;24.55;;;;;;;5.03;75.13;103246.22;5053138;28;20091;-69
2022/01/24 04:42:48;;;;;;;31.88;22.92;;;;;;;5.05;74.17;103244.25;5053287;28;20033;-69
2022/01/24 04:51:03;;;;;;;34.93;24.23;;;;;;;5.03;76.67;103240.84;5053248;28;20041;-69
2022/01/24 04:56:03;;;;;;;32.95;24.02;;;;;;;5.02;76.63;103239.13;5052808;28;20494;-69
2022/01/24 04:58:29;;;;;;;32.38;23.75;;;;;;;5.01;76.77;103242.78;5052756;28;20167;-69
2022/01/24 05:00:54;;;;;;;31.90;24.75;;;;;;;5.01;76.76;103242.78;5050055;28;20432;-69
2022/01/24 05:03:20;;;;;;;33.70;23.25;;;;;;;5.00;76.45;103243.78;5053068;28;20056;-69
2022/01/24 05:05:46;;;;;;;32.72;23.90;;;;;;;4.94;75.80;103247.84;5052609;28;20043;-69
2022/01/24 05:08:13;;;;;;;33.53;24.00;;;;;;;4.96;75.82;103255.75;5052649;28;20032;-69
2022/01/24 05:10:51;;;;;;;33.10;23.85;;;;;;;4.95;75.46;103248.69;5052796;28;20095;-69
2022/01/24 05:23:25;;;;;;;34.17;24.52;;;;;;;4.92;75.75;103262.34;5052680;28;20486;-69
2022/01/24 05:24:22;;;;;;;34.43;25.13;;;;;;;4.91;76.66;103252.63;5052378;28;20037;-69
2022/01/24 05:26:47;;;;;;;33.85;23.10;;;;;;;4.87;76.15;103240.44;5052661;28;20033;-69
2022/01/24 05:29:13;;;;;;;32.03;23.13;;;;;;;4.91;76.57;103247.25;5052433;28;20083;-69
2022/01/24 05:31:38;;;;;;;30.98;23.20;;;;;;;4.94;75.90;103241.63;5052593;28;20078;-69
2022/01/24 05:34:03;;;;;;;32.25;22.70;;;;;;;4.92;76.16;103233.72;5051960;28;20104;-69
2022/01/24 05:36:28;;;;;;;32.15;24.05;;;;;;;4.90;76.80;103234.81;5052498;28;20036;-69
2022/01/24 05:38:54;;;;;;;32.72;24.42;;;;;;;4.93;77.19;103239.91;5052507;28;20179;-69
2022/01/24 05:41:19;;;;;;;33.75;23.77;;;;;;;4.91;76.06;103225.78;5052186;28;20032;-69
2022/01/24 05:43:44;;;;;;;31.25;23.40;;;;;;;4.90;76.79;103229.44;5052690;28;20035;-69
2022/01/24 05:46:09;;;;;;;32.22;23.55;;;;;;;4.89;76.83;103235.78;5050790;28;20028;-69
2022/01/24 05:48:35;;;;;;;33.20;23.80;;;;;;;4.89;75.79;103233.09;5052363;28;20021;-69
2022/01/24 05:51:00;;;;;;;30.63;22.90;;;;;;;4.89;76.50;103235.78;5051805;28;20040;-69
2022/01/24 05:53:26;;;;;;;31.23;22.42;;;;;;;4.87;76.67;103235.91;5052257;28;20061;-69
2022/01/24 05:55:51;;;;;;;32.13;22.23;;;;;;;4.79;74.99;103241.91;5051912;28;20045;-69
2022/01/24 05:58:16;;;;;;;31.48;22.13;;;;;;;4.82;75.84;103248.03;5052086;28;20033;-69
2022/01/24 06:00:41;;;;;;;30.77;22.23;;;;;;;4.86;75.89;103244.97;5049740;28;20537;-69
2022/01/24 06:03:07;;;;;;;32.92;22.63;;;;;;;4.81;76.28;103241.78;5052097;28;20045;-69
2022/01/24 06:05:32;;;;;;;32.78;22.83;;;;;;;4.83;77.20;103250.59;5052185;28;20375;-69
2022/01/24 06:07:57;;;;;;;31.63;23.70;;;;;;;4.85;75.68;103240.56;5052201;28;20028;-69
2022/01/24 06:10:23;;;;;;;33.17;22.88;;;;;;;4.84;76.31;103246.91;5051947;28;20043;-69
2022/01/24 06:12:48;;;;;;;32.70;23.02;;;;;;;4.83;75.16;103244.34;5052071;28;20094;-69
2022/01/24 06:15:13;;;;;;;35.17;22.80;;;;;;;4.81;75.89;103247.16;5051843;28;20056;-69
2022/01/24 06:17:39;;;;;;;30.25;22.52;;;;;;;4.81;75.88;103243.63;5052113;28;20112;-69
2022/01/24 06:20:06;;;;;;;31.90;22.80;;;;;;;4.78;74.79;103248.25;5051928;28;20067;-69
2022/01/24 06:22:31;;;;;;;30.13;21.92;;;;;;;4.81;74.89;103246.31;5052307;28;20040;-69
2022/01/24 06:24:56;;;;;;;32.83;22.45;;;;;;;4.80;75.86;103237.41;5052072;28;20033;-69
2022/01/24 06:27:21;;;;;;;32.88;22.58;;;;;;;4.76;76.25;103244.84;5054807;28;20025;-69
2022/01/24 06:29:47;;;;;;;33.35;23.92;;;;;;;4.77;76.00;103249.25;5055867;28;20033;-69
2022/01/24 06:32:12;;;;;;;32.60;22.45;;;;;;;4.75;76.35;103248.50;5055731;28;20021;-69
2022/01/24 06:34:37;;;;;;;32.05;22.48;;;;;;;4.73;76.71;103239.75;5055722;28;20033;-69
2022/01/24 06:37:04;;;;;;;34.38;22.98;;;;;;;4.71;76.63;103249.78;5055460;28;20024;-69
2022/01/24 06:39:29;;;;;;;31.08;22.05;;;;;;;4.72;76.97;103251.44;5055964;28;20414;-69
2022/01/24 06:42:10;;;;;;;32.40;21.42;;;;;;;4.73;76.60;103245.13;5055885;28;20029;-69
2022/01/24 06:44:35;;;;;;;31.35;21.42;;;;;;;4.77;76.55;103246.56;5055613;28;20115;-69
2022/01/24 06:47:01;;;;;;;32.90;20.70;;;;;;;4.73;76.24;103244.28;5055622;28;20167;-69
2022/01/24 06:49:26;;;;;;;29.90;20.92;;;;;;;4.72;76.38;103248.75;5055178;28;20029;-69
2022/01/24 06:51:51;;;;;;;29.98;21.23;;;;;;;4.72;76.42;103253.28;5055116;28;20025;-69
2022/01/24 06:54:17;;;;;;;30.08;21.48;;;;;;;4.72;76.60;103254.13;5055063;28;20033;-69
2022/01/24 06:56:42;;;;;;;29.67;19.92;;;;;;;4.71;76.63;103251.56;5055034;28;20027;-69
2022/01/24 06:59:07;;;;;;;29.48;20.20;;;;;;;4.70;76.34;103255.25;5055075;28;20037;-69
2022/01/24 07:01:33;;;;;;;29.20;19.70;;;;;;;4.71;76.81;103260.50;5052541;28;20017;-69
2022/01/24 07:03:59;;;;;;;29.00;21.27;;;;;;;4.70;76.13;103258.78;5054847;28;20029;-69
2022/01/24 07:06:24;;;;;;;30.95;21.67;;;;;;;4.71;76.11;103259.63;5054951;28;20082;-69
2022/01/24 07:08:49;;;;;;;30.70;21.15;;;;;;;4.69;76.81;103259.75;5055341;28;20028;-69
2022/01/24 07:11:14;;;;;;;32.50;21.50;;;;;;;4.69;76.50;103259.75;5054841;28;20528;-67
2022/01/24 07:13:40;;;;;;;33.33;20.65;;;;;;;4.66;75.73;103262.69;5054706;28;20052;-69
2022/01/24 07:16:06;;;;;;;28.25;19.75;;;;;;;4.66;76.34;103262.69;5054755;28;20033;-69
2022/01/24 07:21:01;;;;;;;30.17;20.00;;;;;;;4.64;76.12;103261.97;5054619;28;20120;-69
2022/01/24 07:23:27;;;;;;;29.85;20.65;;;;;;;4.61;75.67;103268.44;5054607;28;20479;-69
2022/01/24 07:25:53;;;;;;;29.90;20.98;;;;;;;4.63;75.59;103270.16;5054801;28;20033;-69
2022/01/24 07:28:18;;;;;;;27.48;19.80;;;;;;;4.60;75.12;103265.88;5054548;28;20391;-69
2022/01/24 07:30:45;;;;;;;29.25;20.55;;;;;;;4.60;75.88;103271.25;5054698;28;20032;-69
2022/01/24 07:33:10;;;;;;;29.08;20.10;;;;;;;4.58;76.12;103262.47;5054015;28;20025;-69
2022/01/24 07:35:36;;;;;;;28.77;20.85;;;;;;;4.62;76.10;103271.97;5054654;28;20029;-69
2022/01/24 07:38:03;;;;;;;28.73;20.08;;;;;;;4.59;75.23;103270.41;5053356;28;20040;-69
2022/01/24 07:40:29;;;;;;;29.63;21.20;;;;;;;4.54;75.24;103266.38;5054293;28;20033;-69
2022/01/24 07:42:58;;;;;;;31.33;20.85;;;;;;;4.55;75.44;103266.25;5054498;28;20108;-69
2022/01/24 07:45:25;;;;;;;29.05;20.15;;;;;;;4.53;75.76;103270.03;5053889;28;20116;-69
2022/01/24 07:47:51;;;;;;;29.60;20.67;;;;;;;4.54;75.24;103261.03;5054303;28;20033;-69
2022/01/24 07:50:20;;;;;;;29.05;20.38;;;;;;;4.52;76.02;103263.81;5054150;28;20060;-69
2022/01/24 07:52:46;;;;;;;31.17;21.15;;;;;;;4.54;76.10;103266.38;5054123;28;20033;-69
2022/01/24 07:55:11;;;;;;;29.63;20.88;;;;;;;4.54;76.32;103267.22;5054077;28;20090;-69
2022/01/24 07:57:37;;;;;;;30.00;21.40;;;;;;;4.56;76.81;103283.19;5054183;28;20021;-69
2022/01/24 08:00:05;;;;;;;30.33;21.48;;;;;;;4.56;77.12;103278.69;5054106;28;20048;-69
2022/01/24 08:02:30;;;;;;;33.72;21.08;;;;;;;4.55;75.85;103290.38;5051303;28;20055;-69
2022/01/24 08:04:55;;;;;;;30.75;21.05;;;;;;;4.57;76.21;103290.25;5054084;28;20029;-69
2022/01/24 08:07:20;;;;;;;32.67;21.50;;;;;;;4.52;75.75;103284.44;5052501;28;20025;-69
2022/01/24 08:09:46;;;;;;;29.67;20.60;;;;;;;4.58;76.71;103294.66;5053970;28;20475;-69
2022/01/24 08:12:11;;;;;;;28.92;20.70;;;;;;;4.56;75.91;103296.59;5053667;28;20079;-69
2022/01/24 08:14:36;;;;;;;31.48;21.38;;;;;;;4.54;75.64;103299.41;5052507;28;20036;-69
2022/01/24 08:17:03;;;;;;;34.08;22.75;;;;;;;4.55;75.67;103302.97;5053831;28;20457;-69
2022/01/24 08:19:28;;;;;;;31.75;23.02;;;;;;;4.54;76.60;103309.28;5053575;28;20116;-69
2022/01/24 08:21:56;;;;;;;35.83;23.48;;;;;;;4.55;76.19;103301.13;5053710;28;20111;-69
2022/01/24 08:24:22;;;;;;;36.38;24.98;;;;;;;4.55;75.89;103305.63;5051994;28;20443;-69
2022/01/24 08:26:47;;;;;;;33.65;24.38;;;;;;;4.53;75.57;103303.09;5053574;28;20068;-69
2022/01/24 08:29:13;;;;;;;31.92;23.75;;;;;;;4.52;76.04;103295.16;5053295;28;20060;-69
2022/01/24 08:31:38;;;;;;;34.28;24.65;;;;;;;4.54;75.13;103303.91;5053528;28;20403;-69
2022/01/24 08:34:03;;;;;;;34.92;25.58;;;;;;;4.55;75.57;103309.16;5053386;28;20025;-69
2022/01/24 08:36:29;;;;;;;33.67;24.40;;;;;;;4.58;75.58;103308.91;5051870;28;20087;-69
2022/01/24 08:38:57;;;;;;;33.75;25.33;;;;;;;4.58;75.85;103303.53;5052097;28;20040;-69
2022/01/24 08:41:29;;;;;;;38.15;24.88;;;;;;;4.59;75.70;103305.25;5053091;28;20061;-69
2022/01/24 08:44:17;;;;;;;;;;;;;;;4.71;76.75;103306.09;5053528;28;20025;-69
2022/01/24 08:46:45;;;;;;;34.28;25.10;;;;;;;4.58;75.41;103306.22;5053307;28;19909;-69
2022/01/24 08:49:10;;;;;;;35.20;24.33;;;;;;;4.59;75.27;103301.75;5052701;28;20017;-69
2022/01/24 08:51:35;;;;;;;34.65;25.23;;;;;;;4.54;74.38;103301.25;5051825;28;20036;-69
2022/01/24 08:54:03;;;;;;;33.35;23.77;;;;;;;4.55;74.63;103309.16;5053000;28;20028;-69
2022/01/24 08:56:28;;;;;;;33.50;24.10;;;;;;;4.53;74.41;103307.56;5052820;28;20028;-69
2022/01/24 08:58:53;;;;;;;33.35;23.42;;;;;;;4.47;73.37;103316.13;5051731;28;20117;-69
2022/01/24 09:01:18;;;;;;;33.60;24.55;;;;;;;4.48;74.94;103320.50;5049829;28;20035;-69
2022/01/24 09:03:44;;;;;;;35.97;25.77;;;;;;;4.48;74.27;103317.84;5052963;28;20028;-69
2022/01/24 09:06:11;;;;;;;34.33;23.58;;;;;;;4.52;75.32;103306.72;5053013;28;20036;-69
2022/01/24 09:08:36;;;;;;;34.60;25.20;;;;;;;4.54;75.00;103317.34;5052934;28;20033;-69
2022/01/24 09:11:03;;;;;;;40.47;26.27;;;;;;;4.52;74.67;103306.72;5052850;28;20059;-69
2022/01/24 09:13:30;;;;;;;34.83;24.65;;;;;;;4.58;74.46;103313.44;5051163;28;20460;-69
2022/01/24 09:15:56;;;;;;;35.00;24.42;;;;;;;4.56;75.28;103308.19;5052788;28;20029;-69
2022/01/24 09:18:21;;;;;;;33.25;23.60;;;;;;;4.61;75.01;103321.22;5051224;28;20043;-69
2022/01/24 09:20:50;;;;;;;32.95;23.88;;;;;;;4.61;74.25;103316.72;5052987;28;20376;-69
2022/01/24 09:23:16;;;;;;;33.72;23.30;;;;;;;4.56;74.04;103318.91;5052106;28;20496;-69
2022/01/24 09:25:42;;;;;;;31.25;22.35;;;;;;;4.51;73.26;103318.41;5052325;28;20468;-69
2022/01/24 09:28:07;;;;;;;33.65;22.33;;;;;;;4.47;72.93;103321.47;5052283;28;20040;-69
2022/01/24 09:30:32;;;;;;;35.72;23.20;;;;;;;4.40;73.54;103318.44;5051016;28;20036;-69
2022/01/24 09:32:58;;;;;;;35.53;23.73;;;;;;;4.39;74.03;103317.59;5052217;28;20044;-69
2022/01/24 09:35:23;;;;;;;34.10;22.88;;;;;;;4.42;73.96;103316.50;5052300;28;20045;-69
2022/01/24 09:37:49;;;;;;;34.60;23.25;;;;;;;4.48;75.67;103310.63;5051083;28;20422;-69
2022/01/24 09:40:16;;;;;;;33.67;23.65;;;;;;;4.51;75.72;103314.91;5050933;28;20498;-69
2022/01/24 09:42:42;;;;;;;33.22;22.42;;;;;;;4.51;74.48;103313.06;5051061;28;20388;-69
2022/01/24 09:45:09;;;;;;;32.72;22.17;;;;;;;4.58;74.84;103316.13;5052394;28;20491;-68
2022/01/24 09:47:36;;;;;;;32.90;22.77;;;;;;;4.61;75.31;103316.72;5052055;28;20067;-69
2022/01/24 09:50:03;;;;;;;29.20;20.95;;;;;;;4.65;75.35;103311.09;5052368;28;20399;-69
2022/01/24 09:52:29;;;;;;;31.20;21.50;;;;;;;4.63;74.79;103311.22;5051719;28;20029;-68
2022/01/24 09:54:54;;;;;;;32.63;23.20;;;;;;;4.64;74.31;103307.56;5052319;28;20027;-69
2022/01/24 09:57:19;;;;;;;32.45;23.40;;;;;;;4.68;74.82;103310.84;5050725;28;20111;-68
2022/01/24 09:59:44;;;;;;;33.58;22.67;;;;;;;4.71;75.06;103302.53;5052282;28;20040;-68
2022/01/24 10:02:10;;;;;;;32.28;22.38;;;;;;;4.73;75.38;103301.44;5052699;28;20236;-69
2022/01/24 10:04:35;;;;;;;37.72;22.77;;;;;;;4.74;74.87;103305.84;5056328;28;20108;-69
2022/01/24 10:07:08;;;;;;;32.72;23.10;;;;;;;4.78;74.94;103315.31;5054983;28;20056;-69
2022/01/24 10:09:44;;;;;;;31.23;21.90;;;;;;;4.82;75.02;103315.09;5055968;28;20025;-68
2022/01/24 10:12:30;;;;;;;32.13;22.77;;;;;;;4.82;74.92;103307.06;5055897;28;20434;-68
2022/01/24 10:17:42;;;;;;;27.40;19.92;;;;;;;4.73;73.60;103304.13;5056107;28;20048;-69
2022/01/24 10:20:23;;;;;;;29.33;19.88;;;;;;;4.75;73.99;103304.84;5056061;28;20040;-68
2022/01/24 10:23:13;;;;;;;29.65;19.30;;;;;;;4.77;73.39;103310.94;5055779;28;20082;-69
2022/01/24 10:26:00;;;;;;;29.40;19.67;;;;;;;4.78;73.67;103307.28;5055487;28;20079;-69
2022/01/24 10:28:27;;;;;;;30.10;19.55;;;;;;;4.72;72.10;103313.16;5055422;28;20021;-69
2022/01/24 10:31:08;;;;;;;31.23;19.63;;;;;;;4.74;73.19;103304.97;5054364;28;20048;-69
2022/01/24 10:33:56;;;;;;;29.17;20.63;;;;;;;4.74;73.48;103311.22;5055532;28;20025;-68
2022/01/24 10:36:42;;;;;;;27.98;19.42;;;;;;;4.71;73.14;103305.22;5055631;28;20029;-69
2022/01/24 10:39:10;;;;;;;28.95;19.55;;;;;;;4.70;73.32;103300.84;5056015;28;20092;-68
2022/01/24 10:44:30;;;;;;;30.27;19.38;;;;;;;4.72;73.24;103297.06;5055087;28;20155;-69
2022/01/24 10:47:19;;;;;;;28.60;19.27;;;;;;;4.78;72.51;103296.53;5055467;28;20100;-69
2022/01/24 10:49:46;;;;;;;27.98;18.83;;;;;;;4.72;72.63;103293.53;5055510;28;20021;-68
2022/01/24 10:52:14;;;;;;;29.67;19.80;;;;;;;4.76;72.28;103293.16;5055310;28;20033;-69
2022/01/24 10:54:40;;;;;;;30.33;19.50;;;;;;;4.75;72.53;103291.44;5055177;28;20388;-68
2022/01/24 10:57:05;;;;;;;30.88;20.48;;;;;;;4.76;72.90;103292.31;5055473;28;20040;-69
2022/01/24 10:59:33;;;;;;;29.10;19.92;;;;;;;4.77;72.52;103288.63;5055169;28;20025;-68
2022/01/24 11:02:01;;;;;;;28.95;19.33;;;;;;;4.78;73.88;103291.19;5052653;28;20123;-68
2022/01/24 11:04:27;;;;;;;30.52;19.98;;;;;;;4.82;72.86;103291.78;5053661;28;20068;-69
2022/01/24 11:06:58;;;;;;;33.50;20.20;;;;;;;4.81;72.70;103284.72;5055180;28;20114;-69
2022/01/24 11:09:29;;;;;;;29.67;20.15;;;;;;;4.81;72.07;103287.41;5054908;28;20037;-69
2022/01/24 11:12:01;;;;;;;28.75;20.27;;;;;;;4.84;72.46;103291.66;5054627;28;20477;-68
2022/01/24 11:14:27;;;;;;;28.00;18.95;;;;;;;4.81;71.85;103289.25;5054845;28;20029;-69
2022/01/24 11:16:55;;;;;;;28.30;18.95;;;;;;;4.80;72.20;103283.00;5055013;28;20480;-69
2022/01/24 11:21:52;;;;;;;30.58;20.42;;;;;;;4.80;72.92;103280.31;5054920;28;20036;-69
2022/01/24 11:24:22;;;;;;;29.48;19.85;;;;;;;4.83;72.97;103290.81;5054875;28;20036;-69
2022/01/24 11:26:47;;;;;;;27.95;19.70;;;;;;;4.85;71.47;103282.66;5054847;28;20028;-69
2022/01/24 11:29:16;;;;;;;28.88;20.17;;;;;;;4.87;73.18;103276.16;5054810;28;20035;-69
2022/01/24 11:31:49;;;;;;;30.10;20.25;;;;;;;4.92;73.63;103281.13;5054503;28;20052;-69
2022/01/24 11:34:34;;;;;;;28.40;19.52;;;;;;;4.91;71.92;103271.41;5054280;28;20381;-69
2022/01/24 11:37:00;;;;;;;31.77;20.85;;;;;;;4.84;72.17;103272.88;5054593;28;20024;-69
2022/01/24 11:39:25;;;;;;;30.83;20.42;;;;;;;4.86;72.12;103273.59;5054284;28;20464;-68
2022/01/24 11:41:51;;;;;;;30.08;20.45;;;;;;;4.84;72.07;103280.94;5054266;28;20098;-69
2022/01/24 11:44:19;;;;;;;28.50;20.30;;;;;;;4.82;72.39;103283.75;5054442;28;20029;-69
2022/01/24 11:46:55;;;;;;;30.05;20.80;;;;;;;4.77;72.25;103283.25;5053880;28;20554;-69
2022/01/24 11:49:24;;;;;;;28.30;19.25;;;;;;;4.83;72.87;103277.41;5054114;28;20025;-69
2022/01/24 11:52:02;;;;;;;28.17;20.20;;;;;;;4.84;72.01;103272.88;5054324;28;20031;-69
2022/01/24 11:57:20;;;;;;;30.83;20.67;;;;;;;4.92;72.19;103273.09;5054307;28;20380;-68
2022/01/24 11:59:47;;;;;;;30.02;20.70;;;;;;;4.88;71.28;103266.28;5054216;28;20029;-69
2022/01/24 12:02:18;;;;;;;30.38;20.23;;;;;;;4.91;72.53;103263.34;5051558;28;20477;-69
2022/01/24 12:05:09;;;;;;;30.40;20.08;;;;;;;4.92;72.69;103246.25;5053718;28;20542;-69
2022/01/24 12:07:50;;;;;;;30.33;21.10;;;;;;;5.02;73.46;103247.19;5054047;28;20035;-68
2022/01/24 12:10:46;;;;;;;30.70;21.20;;;;;;;5.08;72.37;103252.03;5054172;28;20108;-68
2022/01/24 12:13:28;;;;;;;29.65;20.38;;;;;;;5.08;71.36;103251.19;5053619;28;20047;-69
2022/01/24 12:16:00;;;;;;;31.65;20.50;;;;;;;5.02;70.38;103243.66;5053872;28;20021;-69
2022/01/24 12:18:26;;;;;;;31.95;20.17;;;;;;;5.08;72.17;103243.16;5052247;28;20456;-69
2022/01/24 12:20:55;;;;;;;29.08;20.35;;;;;;;5.06;71.83;103245.97;5053487;28;20115;-69
2022/01/24 12:23:21;;;;;;;30.25;21.25;;;;;;;5.06;70.53;103253.16;5053215;28;20044;-69
2022/01/24 12:25:58;;;;;;;28.63;20.58;;;;;;;5.08;71.64;103243.16;5053372;28;20415;-69
2022/01/24 12:28:26;;;;;;;30.77;20.20;;;;;;;5.06;70.38;103245.97;5053395;28;20029;-69
2022/01/24 12:30:58;;;;;;;29.55;19.88;;;;;;;5.02;71.26;103244.50;5052257;28;20380;-69
2022/01/24 12:33:34;;;;;;;;;;;;;;;5.17;72.81;103236.16;5052567;28;20032;-69
2022/01/24 12:36:01;;;;;;;30.15;19.80;;;;;;;5.09;70.94;103239.50;5053469;28;19912;-69
2022/01/24 12:38:42;;;;;;;30.65;20.35;;;;;;;5.13;71.95;103241.78;5051880;28;20127;-69
2022/01/24 12:41:26;;;;;;;30.38;19.98;;;;;;;5.15;71.01;103244.34;5053417;28;20039;-69
2022/01/24 12:46:27;;;;;;;30.20;20.92;;;;;;;5.15;71.43;103229.06;5053492;28;20036;-69
2022/01/24 12:48:57;;;;;;;28.98;20.25;;;;;;;5.18;70.97;103229.78;5053271;28;20419;-69
2022/01/24 12:51:27;;;;;;;28.98;20.95;;;;;;;5.14;70.40;103224.69;5053204;28;20028;-69
2022/01/24 12:53:53;;;;;;;29.58;20.73;;;;;;;5.19;70.48;103226.13;5053100;28;20040;-68
2022/01/24 12:56:25;;;;;;;27.95;20.50;;;;;;;5.23;70.56;103224.91;5053004;28;20028;-69
2022/01/24 12:58:50;;;;;;;31.58;20.52;;;;;;;5.21;70.83;103233.06;5053120;28;20521;-69